Time;durP1;ratioP1;P1;durP2;ratioP2;P2;SDS_P1;SDS_P2;PMS_P1;PMS_P2;Temp;Humidity;BMP_temperature;BMP_pressure;BME280_temperature;BME280_humidity;BME280_pressure;Samples;Min_cycle;Max_cycle;Signal;HPM_P1;HPM_P2
2022/10/05 00:01:47;;;;;;;6.85;3.15;;;15.40;99.90;;;;;;5072849;28;20044;-83
2022/10/05 00:04:21;;;;;;;5.40;3.47;;;15.40;99.90;;;;;;5072035;28;20044;-83
2022/10/05 00:06:59;;;;;;;6.68;3.05;;;15.40;99.90;;;;;;5035908;28;20115;-80
2022/10/05 00:09:29;;;;;;;4.35;2.67;;;15.40;99.90;;;;;;5061700;28;20418;-81
2022/10/05 00:11:54;;;;;;;7.43;2.80;;;15.40;99.90;;;;;;5036873;28;20052;-80
2022/10/05 00:14:30;;;;;;;4.43;3.08;;;15.40;99.90;;;;;;5035684;28;20041;-80
2022/10/05 00:16:56;;;;;;;6.95;3.20;;;15.40;99.90;;;;;;5052231;28;20041;-80
2022/10/05 00:19:36;;;;;;;5.13;2.45;;;15.40;99.90;;;;;;5058180;28;20037;-80
2022/10/05 00:22:15;;;;;;;8.63;3.53;;;15.40;99.90;;;;;;5071963;28;20416;-80
2022/10/05 00:24:42;;;;;;;9.38;2.53;;;15.30;99.90;;;;;;5072046;28;20040;-80
2022/10/05 00:27:20;;;;;;;4.90;2.50;;;15.40;99.90;;;;;;5071586;28;20041;-80
2022/10/05 00:29:47;;;;;;;5.85;2.80;;;15.30;99.90;;;;;;5056409;28;20402;-80
2022/10/05 00:32:15;;;;;;;6.82;2.85;;;15.30;99.90;;;;;;5073843;28;20043;-80
2022/10/05 00:34:42;;;;;;;5.13;2.97;;;15.30;99.90;;;;;;5075676;28;20056;-80
2022/10/05 00:37:08;;;;;;;5.18;2.55;;;15.30;99.90;;;;;;5075503;28;20051;-80
2022/10/05 00:39:37;;;;;;;6.45;2.97;;;15.30;99.90;;;;;;5058514;28;20059;-80
2022/10/05 00:42:38;;;;;;;5.68;2.60;;;15.30;99.90;;;;;;5058696;28;20055;-80
2022/10/05 00:45:14;;;;;;;5.40;2.75;;;15.20;99.90;;;;;;5075925;28;20032;-80
2022/10/05 00:47:55;;;;;;;8.57;3.03;;;15.20;99.90;;;;;;5075894;28;20037;-80
2022/10/05 00:50:42;;;;;;;5.47;2.50;;;15.20;99.90;;;;;;5061424;28;20044;-80
2022/10/05 00:53:32;;;;;;;5.72;2.90;;;15.20;99.90;;;;;;5059056;28;20052;-80
2022/10/05 00:56:22;;;;;;;4.43;2.55;;;15.20;99.90;;;;;;5075251;28;20040;-80
2022/10/05 00:59:06;;;;;;;6.30;2.60;;;15.20;99.90;;;;;;5075911;28;20100;-81
2022/10/05 01:01:42;;;;;;;4.43;2.53;;;15.20;99.90;;;;;;5075189;28;20045;-80
2022/10/05 01:04:30;;;;;;;4.60;2.50;;;15.20;99.90;;;;;;5074999;28;20032;-80
2022/10/05 01:07:16;;;;;;;7.07;3.00;;;15.20;99.90;;;;;;5075540;28;20449;-81
2022/10/05 01:10:12;;;;;;;5.53;2.17;;;15.20;99.90;;;;;;5075381;28;20041;-80
2022/10/05 01:12:57;;;;;;;5.85;2.40;;;15.20;99.90;;;;;;5057855;28;20063;-80
2022/10/05 01:15:44;;;;;;;6.15;2.47;;;15.10;99.90;;;;;;5055243;28;20052;-80
2022/10/05 01:18:38;;;;;;;5.05;2.35;;;15.10;99.90;;;;;;5055168;28;20495;-80
2022/10/05 01:21:23;;;;;;;3.85;2.22;;;15.10;99.90;;;;;;5056246;28;20053;-80
2022/10/05 01:24:07;;;;;;;4.22;2.50;;;15.10;99.90;;;;;;5073565;28;20033;-80
2022/10/05 01:27:19;;;;;;;7.53;2.50;;;15.10;99.90;;;;;;5075782;28;20040;-80
2022/10/05 01:30:01;;;;;;;5.13;2.78;;;15.10;99.90;;;;;;5074813;28;20044;-82
2022/10/05 01:32:55;;;;;;;3.63;2.22;;;15.10;99.90;;;;;;5075182;28;20434;-82
2022/10/05 01:35:54;;;;;;;5.00;2.40;;;15.10;99.90;;;;;;5075051;28;20490;-82
2022/10/05 01:39:10;;;;;;;4.80;2.47;;;15.10;99.90;;;;;;5075191;28;20094;-82
2022/10/05 01:41:44;;;;;;;4.50;2.60;;;15.10;99.90;;;;;;5028496;28;20056;-82
2022/10/05 01:44:29;;;;;;;4.25;2.47;;;15.10;99.90;;;;;;5055766;28;20124;-82
2022/10/05 01:47:06;;;;;;;4.55;2.60;;;15.10;99.90;;;;;;5060547;28;20029;-82
2022/10/05 01:49:37;;;;;;;6.03;2.58;;;15.10;99.90;;;;;;5057118;28;20047;-82
2022/10/05 01:52:12;;;;;;;5.50;2.83;;;15.00;99.90;;;;;;5074547;28;20528;-83
2022/10/05 01:55:05;;;;;;;5.95;2.70;;;15.00;99.90;;;;;;5074412;28;20041;-82
2022/10/05 01:57:37;;;;;;;6.25;3.40;;;15.00;99.90;;;;;;5057001;28;20033;-82
2022/10/05 02:00:09;;;;;;;5.90;3.15;;;14.90;99.90;;;;;;5074233;28;20063;-83
2022/10/05 02:02:58;;;;;;;6.28;3.53;;;14.90;99.90;;;;;;5074448;28;20049;-82
2022/10/05 02:05:32;;;;;;;5.35;2.65;;;14.90;99.90;;;;;;5057904;28;20365;-81
2022/10/05 02:08:14;;;;;;;6.05;3.17;;;15.00;99.90;;;;;;5073675;28;20072;-81
2022/10/05 02:10:54;;;;;;;5.30;3.17;;;15.00;99.90;;;;;;5073856;28;20063;-81
2022/10/05 02:13:39;;;;;;;7.07;3.20;;;15.00;99.90;;;;;;5073780;28;20063;-81
2022/10/05 02:16:15;;;;;;;6.45;3.38;;;15.00;99.90;;;;;;5073219;28;20514;-81
2022/10/05 02:19:06;;;;;;;5.03;2.67;;;15.00;99.90;;;;;;5056987;28;20047;-81
2022/10/05 02:21:33;;;;;;;7.82;2.90;;;15.00;99.90;;;;;;5072928;28;20048;-83
2022/10/05 02:24:07;;;;;;;5.50;2.75;;;15.00;99.90;;;;;;5073576;28;20041;-82
2022/10/05 02:26:35;;;;;;;6.78;3.05;;;15.00;99.90;;;;;;5073451;28;20044;-82
2022/10/05 02:29:11;;;;;;;5.70;3.00;;;15.10;99.90;;;;;;5056789;28;20047;-82
2022/10/05 02:31:39;;;;;;;6.28;3.20;;;15.10;99.90;;;;;;5073599;28;20045;-83
2022/10/05 02:34:36;;;;;;;6.25;2.88;;;15.00;99.90;;;;;;5057246;28;20094;-82
2022/10/05 02:37:30;;;;;;;7.38;3.00;;;15.10;99.90;;;;;;5073751;28;20043;-83
2022/10/05 02:40:29;;;;;;;6.38;3.10;;;15.00;99.90;;;;;;5073364;28;20109;-82
2022/10/05 02:43:18;;;;;;;5.47;2.85;;;15.10;99.90;;;;;;5073466;28;20123;-82
2022/10/05 02:45:56;;;;;;;5.80;3.10;;;15.10;99.90;;;;;;5056791;28;20098;-82
2022/10/05 02:48:59;;;;;;;5.95;3.25;;;15.10;99.90;;;;;;5056397;28;20068;-82
2022/10/05 02:51:36;;;;;;;6.32;2.70;;;15.10;99.90;;;;;;5070147;28;20073;-83
2022/10/05 02:54:41;;;;;;;4.78;2.58;;;15.10;99.90;;;;;;5052637;28;20045;-80
2022/10/05 02:57:25;;;;;;;4.90;2.58;;;15.10;99.90;;;;;;5053223;28;20623;-80
2022/10/05 03:00:02;;;;;;;6.65;2.78;;;15.10;99.90;;;;;;5070036;28;20076;-80
2022/10/05 03:02:32;;;;;;;4.90;2.97;;;15.10;99.90;;;;;;5072951;28;20093;-80
2022/10/05 03:05:24;;;;;;;6.60;2.80;;;15.10;99.90;;;;;;5056630;28;20490;-80
2022/10/05 03:08:17;;;;;;;5.78;3.17;;;15.20;99.90;;;;;;5073097;28;20051;-80
2022/10/05 03:11:07;;;;;;;5.47;2.55;;;15.10;99.90;;;;;;5060323;28;20045;-82
2022/10/05 03:14:11;;;;;;;4.95;2.20;;;15.10;99.90;;;;;;5036137;28;20499;-83
2022/10/05 03:17:05;;;;;;;4.28;2.15;;;15.10;99.90;;;;;;5032797;28;20041;-83
2022/10/05 03:20:04;;;;;;;5.72;2.42;;;15.10;99.90;;;;;;5058412;28;20041;-82
2022/10/05 03:22:45;;;;;;;4.05;1.92;;;15.10;99.90;;;;;;5072967;28;20037;-82
2022/10/05 03:25:48;;;;;;;4.90;2.35;;;15.10;99.90;;;;;;5056617;28;20035;-83
2022/10/05 03:28:36;;;;;;;5.97;2.60;;;15.10;99.90;;;;;;5072981;28;20040;-82
2022/10/05 03:31:30;;;;;;;5.13;2.40;;;15.10;99.90;;;;;;5072801;28;20127;-82
2022/10/05 03:34:02;;;;;;;4.75;2.40;;;15.10;99.90;;;;;;5053023;28;20037;-82
2022/10/05 03:36:50;;;;;;;3.42;2.15;;;15.00;99.90;;;;;;5035924;28;20052;-82
2022/10/05 03:39:45;;;;;;;4.80;2.60;;;15.00;99.90;;;;;;5052769;28;20055;-82
2022/10/05 03:42:35;;;;;;;3.25;1.98;;;15.00;99.90;;;;;;5071789;28;20094;-82
2022/10/05 03:45:06;;;;;;;3.70;2.25;;;15.00;99.90;;;;;;5072689;28;20143;-80
2022/10/05 03:47:32;;;;;;;3.97;2.10;;;15.00;99.90;;;;;;5055719;28;20089;-80
2022/10/05 03:50:10;;;;;;;4.95;2.58;;;15.00;99.90;;;;;;5059794;28;20131;-80
2022/10/05 03:53:00;;;;;;;4.28;2.38;;;15.00;99.90;;;;;;5071239;28;20501;-81
2022/10/05 03:55:35;;;;;;;7.38;2.13;;;15.00;99.90;;;;;;5055710;28;20090;-80
2022/10/05 03:58:09;;;;;;;3.75;2.03;;;15.60;99.90;;;;;;5072329;28;20045;-80
2022/10/05 04:00:36;;;;;;;5.13;2.22;;;15.00;99.90;;;;;;5072552;28;20087;-81
2022/10/05 04:03:40;;;;;;;4.80;2.20;;;15.00;99.90;;;;;;5071722;28;20083;-81
2022/10/05 04:06:21;;;;;;;4.32;2.60;;;15.00;99.90;;;;;;5002508;28;20099;-81
2022/10/05 04:08:50;;;;;;;3.67;2.08;;;15.00;99.90;;;;;;5019048;28;20499;-81
2022/10/05 04:11:27;;;;;;;3.67;2.08;;;15.00;99.90;;;;;;5051609;28;20348;-81
2022/10/05 04:14:04;;;;;;;4.95;2.38;;;14.90;99.90;;;;;;5075589;28;20429;-81
2022/10/05 04:16:41;;;;;;;4.90;2.17;;;15.00;99.90;;;;;;5076681;28;20040;-81
2022/10/05 04:19:42;;;;;;;6.07;2.38;;;14.90;99.90;;;;;;5075585;28;20050;-80
2022/10/05 04:22:18;;;;;;;4.32;2.25;;;14.90;99.90;;;;;;5075460;28;20076;-80
2022/10/05 04:25:15;;;;;;;4.40;2.13;;;14.90;99.90;;;;;;5075707;28;20048;-80
2022/10/05 04:27:47;;;;;;;4.78;2.70;;;14.90;99.90;;;;;;5059338;28;20047;-80
2022/10/05 04:30:18;;;;;;;3.90;2.35;;;14.90;99.90;;;;;;5039086;28;20052;-80
2022/10/05 04:32:56;;;;;;;3.85;2.25;;;14.90;99.90;;;;;;5057783;28;20037;-80
2022/10/05 04:35:30;;;;;;;4.57;2.55;;;14.90;99.90;;;;;;5059565;28;20032;-82
2022/10/05 04:38:34;;;;;;;4.72;2.15;;;14.90;99.90;;;;;;5059132;28;20089;-83
2022/10/05 04:41:24;;;;;;;4.80;2.50;;;14.90;99.90;;;;;;5075703;28;20044;-83
2022/10/05 04:43:49;;;;;;;7.25;2.45;;;14.90;99.90;;;;;;5062276;28;20040;-82
2022/10/05 04:46:42;;;;;;;6.95;2.83;;;14.90;99.90;;;;;;5075996;28;20090;-83
2022/10/05 04:49:16;;;;;;;3.80;2.10;;;14.90;99.90;;;;;;5076132;28;20364;-83
2022/10/05 04:51:58;;;;;;;4.78;2.70;;;14.90;99.90;;;;;;5058711;28;20408;-82
2022/10/05 04:54:39;;;;;;;5.32;2.63;;;14.90;99.90;;;;;;5054192;28;20037;-82
2022/10/05 04:57:37;;;;;;;4.47;2.47;;;14.90;99.90;;;;;;5076026;28;20135;-83
2022/10/05 05:00:23;;;;;;;5.85;3.25;;;14.90;99.90;;;;;;5049972;28;20088;-82
2022/10/05 05:03:07;;;;;;;5.43;2.58;;;14.80;99.90;;;;;;5059126;28;20043;-82
2022/10/05 05:05:55;;;;;;;4.88;2.83;;;14.80;99.90;;;;;;5067470;28;20037;-82
2022/10/05 05:08:46;;;;;;;6.95;3.13;;;14.80;99.90;;;;;;5075529;28;20048;-83
2022/10/05 05:11:36;;;;;;;4.82;2.70;;;14.80;99.90;;;;;;5058507;28;20041;-83
2022/10/05 05:14:17;;;;;;;8.57;3.30;;;14.90;99.90;;;;;;5074791;28;20048;-83
2022/10/05 05:16:47;;;;;;;4.95;3.05;;;14.80;99.90;;;;;;5073926;28;20379;-82
2022/10/05 05:19:25;;;;;;;6.07;2.90;;;14.80;99.90;;;;;;5058483;28;20094;-83
2022/10/05 05:22:10;;;;;;;17.50;3.70;;;14.80;99.90;;;;;;5074703;28;20044;-83
2022/10/05 05:24:51;;;;;;;5.55;2.60;;;14.80;99.90;;;;;;5075058;28;20025;-81
2022/10/05 05:27:41;;;;;;;6.13;2.95;;;14.80;99.90;;;;;;5073393;28;20371;-80
2022/10/05 05:30:21;;;;;;;6.20;3.08;;;14.80;99.90;;;;;;5075438;28;20085;-80
2022/10/05 05:32:52;;;;;;;7.00;2.83;;;14.80;99.90;;;;;;5074880;28;20045;-80
2022/10/05 05:35:43;;;;;;;5.53;2.97;;;14.80;99.90;;;;;;5074986;28;20051;-81
2022/10/05 05:38:11;;;;;;;5.93;2.90;;;14.80;99.90;;;;;;5072857;28;20491;-80
2022/10/05 05:41:07;;;;;;;7.60;2.78;;;14.80;99.90;;;;;;5073032;28;20048;-81
2022/10/05 05:43:32;;;;;;;6.00;3.10;;;14.80;99.90;;;;;;5075061;28;20075;-81
2022/10/05 05:46:02;;;;;;;5.57;3.10;;;14.80;99.90;;;;;;5057434;28;20036;-81
2022/10/05 05:48:28;;;;;;;6.18;2.85;;;14.80;99.90;;;;;;5073832;28;20045;-81
2022/10/05 05:51:03;;;;;;;8.90;3.08;;;14.80;99.90;;;;;;5070829;28;20043;-81
2022/10/05 05:53:33;;;;;;;5.47;2.75;;;14.80;99.90;;;;;;5074274;28;20083;-81
2022/10/05 05:56:11;;;;;;;6.65;3.60;;;14.80;99.90;;;;;;5073890;28;20041;-81
2022/10/05 05:58:41;;;;;;;6.63;3.20;;;14.80;99.90;;;;;;5056737;28;20045;-81
2022/10/05 06:01:40;;;;;;;5.07;3.05;;;14.80;99.90;;;;;;5073787;28;20040;-81
2022/10/05 06:04:10;;;;;;;4.55;2.70;;;14.80;99.90;;;;;;5073878;28;20037;-81
2022/10/05 06:06:41;;;;;;;7.35;3.05;;;14.80;99.90;;;;;;5073790;28;20036;-81
2022/10/05 06:09:24;;;;;;;9.88;3.17;;;14.80;99.90;;;;;;5057444;28;20123;-81
2022/10/05 06:12:03;;;;;;;7.32;2.90;;;14.80;99.90;;;;;;5072483;28;20059;-81
2022/10/05 06:15:12;;;;;;;7.57;3.50;;;14.80;99.90;;;;;;5073882;28;20060;-80
2022/10/05 06:17:47;;;;;;;4.88;2.70;;;14.90;99.90;;;;;;5039145;28;20091;-80
2022/10/05 06:20:26;;;;;;;5.75;2.58;;;14.90;99.90;;;;;;5054580;28;20049;-79
2022/10/05 06:22:54;;;;;;;6.05;3.08;;;14.80;99.90;;;;;;5055714;28;20043;-80
2022/10/05 06:25:55;;;;;;;5.93;2.47;;;14.90;99.90;;;;;;5040787;28;20086;-80
2022/10/05 06:28:25;;;;;;;4.57;2.30;;;14.90;99.90;;;;;;5052984;28;20479;-80
2022/10/05 06:30:54;;;;;;;9.82;4.28;;;14.90;99.90;;;;;;5073408;28;20071;-80
2022/10/05 06:33:52;;;;;;;4.97;2.67;;;14.90;99.90;;;;;;5073310;28;20048;-80
2022/10/05 06:36:44;;;;;;;4.53;2.60;;;14.90;99.90;;;;;;5056639;28;20048;-80
2022/10/05 06:39:25;;;;;;;4.80;2.72;;;15.00;99.90;;;;;;5068157;28;20040;-80
2022/10/05 06:41:51;;;;;;;7.78;3.10;;;14.90;99.90;;;;;;5055102;28;20040;-79
2022/10/05 06:44:25;;;;;;;5.85;2.80;;;15.00;99.90;;;;;;5061741;28;20506;-80
2022/10/05 06:46:59;;;;;;;5.10;2.50;;;15.00;99.90;;;;;;5059918;28;20047;-80
2022/10/05 06:49:56;;;;;;;6.72;2.97;;;15.00;99.90;;;;;;5071851;28;20064;-80
2022/10/05 06:52:35;;;;;;;6.43;2.95;;;15.10;99.90;;;;;;5070663;28;20048;-80
2022/10/05 06:55:07;;;;;;;5.80;2.33;;;15.10;99.90;;;;;;5070143;28;20044;-80
2022/10/05 06:58:11;;;;;;;4.43;2.20;;;15.10;99.90;;;;;;5055515;28;20119;-80
2022/10/05 07:00:51;;;;;;;4.95;2.22;;;15.00;99.90;;;;;;5044379;28;20105;-80
2022/10/05 07:03:45;;;;;;;6.00;2.70;;;15.00;99.90;;;;;;5071541;28;20043;-80
2022/10/05 07:06:29;;;;;;;4.50;2.22;;;15.00;99.90;;;;;;5070820;28;20076;-80
2022/10/05 07:09:12;;;;;;;5.63;2.50;;;15.00;99.90;;;;;;5059755;28;20478;-80
2022/10/05 07:11:44;;;;;;;4.63;2.50;;;15.00;99.90;;;;;;5037031;28;20049;-80
2022/10/05 07:14:21;;;;;;;4.53;2.65;;;15.10;99.90;;;;;;5058312;28;20559;-80
2022/10/05 07:17:21;;;;;;;6.38;3.08;;;15.10;99.90;;;;;;5055042;28;20470;-80
2022/10/05 07:20:02;;;;;;;5.15;2.53;;;15.20;99.90;;;;;;5071843;28;20032;-80
2022/10/05 07:22:40;;;;;;;9.90;2.88;;;15.20;99.90;;;;;;5055282;28;20040;-80
2022/10/05 07:25:19;;;;;;;4.78;2.28;;;15.20;99.90;;;;;;5072589;28;20383;-80
2022/10/05 07:27:54;;;;;;;7.10;2.50;;;15.30;99.90;;;;;;5071669;28;20509;-80
2022/10/05 07:30:20;;;;;;;4.57;1.83;;;15.40;99.90;;;;;;5072191;28;20040;-80
2022/10/05 07:33:04;;;;;;;4.15;1.92;;;15.50;99.90;;;;;;5072249;28;20044;-81
2022/10/05 07:38:55;;;;;;;3.55;1.88;;;15.70;99.90;;;;;;5040073;28;20044;-82
2022/10/05 07:41:34;;;;;;;3.50;2.03;;;15.80;99.90;;;;;;5068289;28;20136;-82
2022/10/05 07:44:07;;;;;;;3.40;1.95;;;15.80;99.90;;;;;;5040291;28;20107;-82
2022/10/05 07:46:50;;;;;;;2.88;1.70;;;15.90;99.90;;;;;;5063684;28;20556;-82
2022/10/05 07:49:34;;;;;;;4.07;1.90;;;15.90;99.90;;;;;;5054121;28;20040;-82
2022/10/05 07:52:09;;;;;;;2.75;1.63;;;15.90;99.90;;;;;;5048908;28;20106;-82
2022/10/05 07:54:47;;;;;;;6.25;1.83;;;15.90;99.90;;;;;;5055500;28;20469;-82
2022/10/05 07:57:34;;;;;;;3.55;2.00;;;15.80;99.90;;;;;;5071772;28;20041;-82
2022/10/05 08:00:06;;;;;;;4.65;1.63;;;15.90;99.90;;;;;;5054168;28;20200;-83
2022/10/05 08:02:43;;;;;;;2.75;1.70;;;15.80;99.90;;;;;;5035734;28;20041;-82
2022/10/05 08:05:24;;;;;;;7.00;2.05;;;15.80;99.90;;;;;;5051795;28;20128;-82
2022/10/05 08:07:59;;;;;;;1.63;1.40;;;15.80;99.90;;;;;;5066669;28;20764;-81
2022/10/05 08:10:38;;;;;;;3.65;1.77;;;15.90;99.90;;;;;;5059871;28;20055;-81
2022/10/05 08:13:18;;;;;;;4.05;1.98;;;16.00;99.90;;;;;;5069178;28;20064;-81
2022/10/05 08:15:49;;;;;;;2.70;1.50;;;16.10;99.90;;;;;;5055575;28;20513;-81
2022/10/05 08:18:45;;;;;;;2.75;1.52;;;16.20;99.90;;;;;;5072360;28;20044;-81
2022/10/05 08:21:15;;;;;;;3.13;1.50;;;16.30;99.90;;;;;;5067781;28;20052;-81
2022/10/05 08:23:56;;;;;;;3.03;1.58;;;16.40;99.90;;;;;;5052099;28;20486;-81
2022/10/05 08:29:13;;;;;;;3.60;1.48;;;16.60;99.90;;;;;;5071671;28;20055;-81
2022/10/05 08:31:47;;;;;;;3.55;1.42;;;16.70;99.90;;;;;;5058002;28;20125;-80
2022/10/05 08:34:33;;;;;;;4.03;1.67;;;16.80;99.90;;;;;;5068620;28;20043;-81
2022/10/05 08:37:17;;;;;;;6.47;1.83;;;16.90;99.90;;;;;;5062466;28;20115;-81
2022/10/05 08:39:52;;;;;;;3.95;1.45;;;16.90;99.90;;;;;;5071740;28;20051;-81
2022/10/05 08:42:36;;;;;;;3.97;1.73;;;17.00;99.90;;;;;;5071327;28;20052;-81
2022/10/05 08:45:21;;;;;;;4.10;2.20;;;17.00;99.90;;;;;;5055144;28;20035;-81
2022/10/05 08:48:03;;;;;;;3.38;1.48;;;17.10;99.90;;;;;;5052869;28;20048;-81
2022/10/05 08:51:06;;;;;;;6.20;1.42;;;17.10;99.90;;;;;;5069611;28;20439;-81
2022/10/05 08:54:20;;;;;;;6.70;2.05;;;17.30;99.90;;;;;;5058279;28;20560;-81
2022/10/05 08:57:10;;;;;;;2.50;1.20;;;17.40;99.90;;;;;;5007776;28;20383;-81
2022/10/05 08:59:55;;;;;;;1.27;1.00;;;17.60;99.90;;;;;;5054885;28;20052;-81
2022/10/05 09:02:38;;;;;;;1.35;1.00;;;17.70;99.90;;;;;;5053626;28;20127;-81
2022/10/05 09:05:41;;;;;;;1.75;1.00;;;18.00;99.90;;;;;;5058212;28;20047;-81
2022/10/05 09:08:46;;;;;;;1.55;1.23;;;18.30;99.90;;;;;;5074842;28;20558;-81
2022/10/05 09:11:26;;;;;;;2.20;1.02;;;18.50;99.90;;;;;;5043762;28;20045;-81
2022/10/05 09:14:02;;;;;;;2.30;1.20;;;18.50;99.90;;;;;;5074763;28;20167;-81
2022/10/05 09:16:59;;;;;;;2.33;1.13;;;18.50;99.90;;;;;;5074655;28;20048;-81
2022/10/05 09:20:08;;;;;;;4.45;1.30;;;18.70;99.90;;;;;;5057469;28;20045;-81
2022/10/05 09:22:45;;;;;;;3.05;1.98;;;19.30;99.90;;;;;;5074320;28;20098;-81
2022/10/05 09:25:28;;;;;;;5.32;2.00;;;20.60;99.90;;;;;;5065142;28;20045;-81
2022/10/05 09:28:19;;;;;;;3.20;1.92;;;19.40;99.90;;;;;;5054471;28;20124;-81
2022/10/05 09:31:20;;;;;;;2.92;1.67;;;19.20;99.90;;;;;;5037793;28;20084;-81
2022/10/05 09:34:03;;;;;;;4.43;1.90;;;19.20;99.90;;;;;;5037696;28;20072;-78
2022/10/05 09:36:50;;;;;;;4.22;2.17;;;18.90;99.90;;;;;;5054157;28;20047;-78
2022/10/05 09:40:01;;;;;;;2.47;1.52;;;18.60;99.90;;;;;;5066066;28;20449;-78
2022/10/05 09:42:51;;;;;;;5.25;2.03;;;18.50;99.90;;;;;;5037841;28;20045;-79
2022/10/05 09:45:28;;;;;;;4.10;2.10;;;18.50;99.90;;;;;;5056963;28;20053;-79
2022/10/05 09:48:15;;;;;;;3.28;1.70;;;18.70;99.90;;;;;;5053953;28;20505;-81
2022/10/05 09:51:07;;;;;;;2.45;1.65;;;19.20;99.90;;;;;;5037979;28;20045;-78
2022/10/05 09:54:00;;;;;;;4.40;1.85;;;19.30;99.90;;;;;;5058854;28;20040;-78
2022/10/05 09:56:33;;;;;;;1.92;1.48;;;19.40;99.90;;;;;;5073881;28;20040;-79
2022/10/05 09:59:20;;;;;;;1.95;1.42;;;19.40;99.90;;;;;;5072711;28;20123;-79
2022/10/05 10:02:03;;;;;;;2.58;1.20;;;19.30;99.90;;;;;;5070026;28;20383;-79
2022/10/05 10:05:04;;;;;;;2.75;1.38;;;19.40;99.90;;;;;;5072298;28;20048;-79
2022/10/05 10:07:57;;;;;;;3.92;2.00;;;19.20;99.90;;;;;;5071994;28;20048;-79
2022/10/05 10:10:22;;;;;;;2.45;1.40;;;18.90;99.90;;;;;;5073039;28;20053;-79
2022/10/05 10:12:55;;;;;;;1.58;1.02;;;18.70;99.90;;;;;;5073587;28;20505;-79
2022/10/05 10:16:00;;;;;;;1.83;1.38;;;18.70;99.90;;;;;;5073220;28;20101;-79
2022/10/05 10:18:51;;;;;;;1.65;1.00;;;18.50;99.90;;;;;;5056184;28;20048;-79
2022/10/05 10:21:38;;;;;;;3.72;1.08;;;18.30;99.90;;;;;;5072941;28;20129;-79
2022/10/05 10:24:07;;;;;;;3.97;1.60;;;18.10;99.90;;;;;;5073657;28;20045;-79
2022/10/05 10:26:47;;;;;;;1.90;1.40;;;18.00;99.90;;;;;;5073261;28;20036;-79
2022/10/05 10:29:55;;;;;;;3.20;1.60;;;17.90;99.90;;;;;;5073280;28;20052;-79
2022/10/05 10:32:44;;;;;;;2.15;1.70;;;17.80;99.90;;;;;;5084420;28;20486;-79
2022/10/05 10:35:35;;;;;;;1.60;1.38;;;17.70;99.90;;;;;;5055340;28;20042;-80
2022/10/05 10:38:03;;;;;;;1.85;1.45;;;17.60;99.90;;;;;;5056333;28;20033;-79
2022/10/05 10:40:35;;;;;;;2.15;1.48;;;17.60;99.90;;;;;;5072887;28;20059;-78
2022/10/05 10:43:22;;;;;;;1.52;1.40;;;17.60;99.90;;;;;;5055472;28;20037;-78
2022/10/05 10:45:58;;;;;;;2.22;1.40;;;17.50;99.90;;;;;;5067356;28;20095;-78
2022/10/05 10:48:24;;;;;;;;;;;17.60;99.90;;;;;;5071407;28;20040;-78
2022/10/05 10:50:50;;;;;;;2.90;1.93;;;17.00;99.90;;;;;;5071906;28;20362;-78
2022/10/05 10:53:34;;;;;;;2.42;1.40;;;17.60;99.90;;;;;;5055625;28;20044;-79
2022/10/05 10:55:59;;;;;;;3.40;1.90;;;17.50;99.90;;;;;;5070883;28;20086;-78
2022/10/05 10:58:43;;;;;;;1.60;1.30;;;17.50;99.90;;;;;;5057756;28;20452;-81
2022/10/05 11:01:24;;;;;;;2.60;1.80;;;17.40;99.90;;;;;;5046133;28;20385;-81
2022/10/05 11:04:09;;;;;;;3.13;1.65;;;17.40;99.90;;;;;;5070716;28;20067;-82
2022/10/05 11:07:00;;;;;;;2.40;1.50;;;17.30;99.90;;;;;;5071112;28;20074;-81
2022/10/05 11:09:37;;;;;;;1.70;1.60;;;17.40;99.90;;;;;;5072807;28;20274;-81
2022/10/05 11:12:21;;;;;;;2.50;1.60;;;17.30;99.90;;;;;;5072864;28;20474;-81
2022/10/05 11:15:12;;;;;;;4.35;1.50;;;17.30;99.90;;;;;;5071621;28;20448;-81
2022/10/05 11:17:44;;;;;;;3.80;1.70;;;17.30;99.90;;;;;;5071539;28;20473;-82
2022/10/05 11:20:33;;;;;;;3.58;1.65;;;17.30;99.90;;;;;;5064790;28;20041;-81
2022/10/05 11:23:37;;;;;;;1.38;1.10;;;17.20;99.90;;;;;;5041709;28;20064;-82
2022/10/05 11:26:05;;;;;;;2.17;1.60;;;17.20;99.90;;;;;;5051902;28;20053;-81
2022/10/05 11:28:57;;;;;;;1.42;1.30;;;17.10;99.90;;;;;;5068268;28;20040;-81
2022/10/05 11:31:45;;;;;;;2.28;1.42;;;17.10;99.90;;;;;;5052176;28;20491;-81
2022/10/05 11:34:32;;;;;;;2.00;1.45;;;17.20;99.90;;;;;;5052291;28;20095;-81
2022/10/05 11:37:07;;;;;;;;;;;17.10;99.90;;;;;;5053126;28;20044;-81
2022/10/05 11:39:42;;;;;;;3.70;1.50;;;17.10;99.90;;;;;;5052047;28;19916;-81
2022/10/05 11:42:32;;;;;;;2.60;1.50;;;17.00;99.90;;;;;;5049541;28;20517;-81
2022/10/05 11:45:20;;;;;;;1.88;1.30;;;17.00;99.90;;;;;;5072047;28;20083;-81
2022/10/05 11:48:14;;;;;;;2.80;1.15;;;17.00;99.90;;;;;;5072040;28;20059;-79
2022/10/05 11:51:04;;;;;;;3.33;1.30;;;17.00;99.90;;;;;;5070193;28;20044;-79
2022/10/05 11:53:56;;;;;;;2.05;1.48;;;17.00;99.90;;;;;;5051927;28;20052;-79
2022/10/05 11:56:52;;;;;;;3.53;1.50;;;16.90;99.90;;;;;;5068540;28;20114;-79
2022/10/05 11:59:25;;;;;;;2.30;1.70;;;16.90;99.90;;;;;;5052094;28;20106;-79
2022/10/05 12:02:30;;;;;;;1.75;1.20;;;16.90;99.90;;;;;;5056290;28;20112;-79
2022/10/05 12:05:01;;;;;;;2.70;1.50;;;16.80;99.90;;;;;;5071529;28;20041;-79
2022/10/05 12:07:56;;;;;;;5.10;1.50;;;16.70;99.90;;;;;;5071686;28;20511;-79
2022/10/05 12:10:30;;;;;;;2.10;1.20;;;16.70;99.90;;;;;;5065040;28;20129;-79
2022/10/05 12:13:26;;;;;;;2.35;1.38;;;16.80;99.90;;;;;;5064713;28;20044;-79
2022/10/05 12:16:03;;;;;;;2.40;1.40;;;16.70;99.90;;;;;;5051622;28;20049;-79
2022/10/05 12:18:29;;;;;;;2.53;1.33;;;16.80;99.90;;;;;;5078952;28;20048;-79
2022/10/05 12:20:54;;;;;;;2.17;1.50;;;16.80;99.90;;;;;;5071589;28;20062;-79
2022/10/05 12:23:45;;;;;;;1.45;1.23;;;16.80;99.90;;;;;;5071853;28;20045;-79
2022/10/05 12:26:13;;;;;;;2.03;1.45;;;16.90;99.90;;;;;;5057199;28;20093;-79
2022/10/05 12:28:50;;;;;;;2.58;1.40;;;16.80;99.90;;;;;;5075075;28;20552;-79
2022/10/05 12:31:37;;;;;;;2.17;1.58;;;16.90;99.90;;;;;;5058980;28;20170;-79
2022/10/05 12:34:14;;;;;;;2.60;2.05;;;16.90;99.90;;;;;;5058772;28;20040;-79
2022/10/05 12:36:51;;;;;;;3.38;1.42;;;16.90;99.90;;;;;;5075442;28;20052;-79
2022/10/05 12:39:35;;;;;;;2.42;1.58;;;16.90;99.90;;;;;;5075329;28;20042;-79
2022/10/05 12:42:19;;;;;;;3.58;2.03;;;16.90;99.90;;;;;;5058487;28;20029;-79
2022/10/05 12:45:07;;;;;;;2.47;1.73;;;16.90;99.90;;;;;;5075178;28;20167;-79
2022/10/05 12:47:47;;;;;;;2.13;1.60;;;16.90;99.90;;;;;;5058316;28;20041;-79
2022/10/05 12:50:21;;;;;;;2.72;1.80;;;16.90;99.90;;;;;;5053564;28;20044;-79
2022/10/05 12:52:56;;;;;;;2.60;1.60;;;17.00;99.90;;;;;;5075020;28;20040;-79
2022/10/05 12:55:43;;;;;;;2.60;1.70;;;16.90;99.90;;;;;;5075393;28;20507;-81
2022/10/05 12:58:44;;;;;;;3.28;1.80;;;17.00;99.90;;;;;;5074901;28;20101;-81
2022/10/05 13:01:29;;;;;;;3.53;2.00;;;17.00;99.90;;;;;;5074825;28;20032;-81
2022/10/05 13:04:07;;;;;;;3.55;1.63;;;17.10;99.90;;;;;;5074932;28;20044;-81
2022/10/05 13:06:40;;;;;;;2.50;1.77;;;17.20;99.90;;;;;;5074640;28;20043;-81
2022/10/05 13:09:18;;;;;;;2.85;1.42;;;17.20;99.90;;;;;;5058353;28;20041;-81
2022/10/05 13:11:51;;;;;;;3.95;1.73;;;17.30;99.90;;;;;;5069186;28;20040;-80
2022/10/05 13:14:48;;;;;;;4.80;2.13;;;17.40;99.90;;;;;;5054983;28;20146;-80
2022/10/05 13:18:07;;;;;;;8.00;2.53;;;17.40;99.90;;;;;;5042445;28;20068;-79
2022/10/05 13:20:43;;;;;;;5.57;1.85;;;17.50;99.90;;;;;;5069783;28;20049;-79
2022/10/05 13:23:30;;;;;;;4.25;1.85;;;17.50;99.90;;;;;;5070494;28;20498;-79
2022/10/05 13:26:10;;;;;;;2.88;1.70;;;17.60;99.90;;;;;;5074035;28;20112;-79
2022/10/05 13:29:16;;;;;;;1.88;1.50;;;17.60;99.90;;;;;;5057520;28;20053;-79
2022/10/05 13:31:50;;;;;;;3.00;2.10;;;17.70;99.90;;;;;;5040490;28;20418;-79
2022/10/05 13:34:35;;;;;;;4.68;1.92;;;17.70;99.90;;;;;;5074648;28;20056;-80
2022/10/05 13:37:26;;;;;;;5.45;1.90;;;17.80;99.90;;;;;;5072790;28;20044;-79
2022/10/05 13:40:26;;;;;;;2.67;1.77;;;17.80;99.90;;;;;;5074331;28;20466;-79
2022/10/05 13:43:04;;;;;;;3.63;2.15;;;17.80;99.90;;;;;;5057658;28;20141;-80
2022/10/05 13:46:02;;;;;;;4.10;1.90;;;17.90;99.90;;;;;;5048932;28;20036;-79
2022/10/05 13:49:15;;;;;;;2.78;1.80;;;17.90;99.90;;;;;;5064052;28;20044;-79
2022/10/05 13:51:47;;;;;;;4.45;2.08;;;17.90;99.90;;;;;;5069491;28;20069;-79
2022/10/05 13:54:44;;;;;;;4.32;1.92;;;17.90;99.90;;;;;;5060015;28;20139;-79
2022/10/05 13:57:30;;;;;;;3.40;1.80;;;18.00;99.90;;;;;;5062734;28;20132;-78
2022/10/05 14:00:13;;;;;;;8.20;1.90;;;17.90;99.90;;;;;;5023543;28;20044;-81
2022/10/05 14:02:42;;;;;;;3.10;1.80;;;17.90;99.90;;;;;;5056904;28;20040;-81
2022/10/05 14:05:18;;;;;;;3.85;1.88;;;17.80;99.90;;;;;;5057101;28;20036;-81
2022/10/05 14:07:55;;;;;;;2.78;1.88;;;17.80;99.90;;;;;;5073489;28;20037;-81
2022/10/05 14:10:32;;;;;;;4.57;1.85;;;17.80;99.90;;;;;;5056778;28;20482;-81
2022/10/05 14:13:00;;;;;;;2.78;1.70;;;17.70;99.90;;;;;;5056867;28;20055;-81
2022/10/05 14:15:35;;;;;;;5.30;2.00;;;17.70;99.90;;;;;;5050947;28;20051;-81